createdAt,value
2018-09-17T00:01:05.719Z,8.73
2018-09-17T00:03:35.808Z,8.10
2018-09-17T00:06:05.940Z,7.87
2018-09-17T00:08:36.015Z,10.70
2018-09-17T00:11:06.181Z,8.80
2018-09-17T00:13:36.258Z,9.33
2018-09-17T00:16:06.446Z,8.93
2018-09-17T00:18:36.482Z,7.10
2018-09-17T00:21:06.672Z,7.10
2018-09-17T00:23:36.745Z,6.37
2018-09-17T00:26:06.870Z,10.83
2018-09-17T00:28:36.916Z,8.80
2018-09-17T00:31:07.012Z,7.47
2018-09-17T00:33:37.103Z,8.40
2018-09-17T00:36:07.321Z,8.87
2018-09-17T00:38:37.436Z,7.67
2018-09-17T00:41:07.610Z,8.63
2018-09-17T00:43:37.692Z,7.10
2018-09-17T00:46:07.777Z,8.63
2018-09-17T00:48:37.995Z,9.67
2018-09-17T00:51:08.186Z,9.27
2018-09-17T00:53:38.251Z,8.80
2018-09-17T00:56:08.457Z,10.60
2018-09-17T00:58:38.569Z,7.60
2018-09-17T01:01:08.800Z,7.53
2018-09-17T01:03:38.887Z,10.80
2018-09-17T01:06:09.019Z,9.83
2018-09-17T01:08:39.110Z,12.10
2018-09-17T01:11:09.364Z,9.80
2018-09-17T01:13:39.437Z,8.77
2018-09-17T01:16:10.360Z,12.90
2018-09-17T01:18:40.398Z,9.30
2018-09-17T01:21:10.485Z,12.93
2018-09-17T01:23:40.595Z,11.47
2018-09-17T01:26:10.760Z,13.23
2018-09-17T01:28:40.815Z,15.50
2018-09-17T01:31:10.952Z,9.13
2018-09-17T01:33:40.968Z,12.50
2018-09-17T01:36:11.141Z,8.77
2018-09-17T01:38:41.260Z,6.87
2018-09-17T01:41:11.513Z,10.00
2018-09-17T01:43:41.683Z,11.80
2018-09-17T01:46:11.872Z,11.10
2018-09-17T01:48:41.924Z,11.83
2018-09-17T01:51:12.056Z,11.43
2018-09-17T01:53:42.090Z,11.50
2018-09-17T01:56:12.239Z,10.90
2018-09-17T01:58:42.332Z,11.80
2018-09-17T02:01:12.375Z,11.10
2018-09-17T02:03:42.414Z,11.27
2018-09-17T02:06:12.491Z,12.87
2018-09-17T02:08:42.577Z,9.87
2018-09-17T02:11:12.642Z,9.07
2018-09-17T02:13:42.841Z,9.90
2018-09-17T02:16:12.881Z,13.80
2018-09-17T02:18:43.158Z,8.97
2018-09-17T02:21:13.956Z,9.17
2018-09-17T02:23:44.450Z,13.93
2018-09-17T02:26:14.570Z,9.40
2018-09-17T02:28:44.640Z,10.07
2018-09-17T02:31:14.709Z,12.33
2018-09-17T02:33:44.937Z,11.47
2018-09-17T02:36:15.085Z,15.33
2018-09-17T02:38:45.155Z,13.70
2018-09-17T02:41:15.230Z,10.63
2018-09-17T02:43:45.326Z,21.93
2018-09-17T02:46:15.422Z,12.10
2018-09-17T02:48:45.499Z,12.03
2018-09-17T02:51:15.600Z,11.90
2018-09-17T02:53:45.628Z,13.40
2018-09-17T02:56:15.806Z,14.70
2018-09-17T02:58:45.899Z,16.10
2018-09-17T03:01:16.020Z,11.10
2018-09-17T03:03:46.089Z,14.13
2018-09-17T03:06:16.161Z,15.93
2018-09-17T03:08:46.267Z,13.40
2018-09-17T03:11:16.351Z,14.43
2018-09-17T03:13:46.451Z,15.20
2018-09-17T03:16:16.557Z,12.23
2018-09-17T03:18:55.568Z,21.73
2018-09-17T03:21:25.782Z,16.00
2018-09-17T03:23:55.870Z,13.97
2018-09-17T03:26:25.962Z,14.90
2018-09-17T03:28:56.041Z,16.83
2018-09-17T03:31:26.103Z,15.53
2018-09-17T03:33:56.361Z,16.50
2018-09-17T03:36:26.437Z,13.37
2018-09-17T03:38:56.516Z,13.40
2018-09-17T03:41:26.612Z,13.70
2018-09-17T03:43:56.712Z,13.63
2018-09-17T03:46:26.877Z,18.10
2018-09-17T03:48:57.100Z,19.50
2018-09-17T03:51:27.257Z,15.83
2018-09-17T03:53:57.387Z,11.93
2018-09-17T03:56:27.626Z,15.47
2018-09-17T03:58:57.620Z,15.73
2018-09-17T04:01:27.704Z,13.93
2018-09-17T04:03:57.801Z,11.67
2018-09-17T04:06:27.948Z,11.87
2018-09-17T04:08:58.019Z,16.10
2018-09-17T04:11:28.111Z,16.40
2018-09-17T04:13:58.145Z,15.40
2018-09-17T04:16:28.258Z,16.10
2018-09-17T04:18:59.459Z,14.37
2018-09-17T04:21:29.536Z,14.60
2018-09-17T04:23:59.630Z,13.20
2018-09-17T04:26:29.745Z,13.10
2018-09-17T04:28:59.813Z,19.10
2018-09-17T04:31:29.946Z,14.67
2018-09-17T04:34:00.031Z,18.80
2018-09-17T04:36:30.224Z,14.90
2018-09-17T04:39:00.313Z,13.60
2018-09-17T04:41:30.499Z,15.87
2018-09-17T04:44:00.537Z,18.80
2018-09-17T04:46:30.632Z,16.60
2018-09-17T04:49:00.728Z,18.73
2018-09-17T04:51:30.811Z,17.60
2018-09-17T04:54:00.913Z,18.97
2018-09-17T04:56:31.083Z,16.00
2018-09-17T04:59:01.219Z,17.93
2018-09-17T05:01:31.340Z,16.17
2018-09-17T05:04:01.380Z,23.93
2018-09-17T05:06:31.437Z,19.20
2018-09-17T05:09:01.481Z,18.80
2018-09-17T05:11:31.563Z,20.33
2018-09-17T05:14:01.643Z,15.33
2018-09-17T05:16:31.776Z,18.13
2018-09-17T05:19:01.896Z,22.13
2018-09-17T05:21:32.031Z,13.17
2018-09-17T05:24:02.078Z,21.47
2018-09-17T05:26:32.169Z,24.60
2018-09-17T05:29:02.299Z,19.37
2018-09-17T05:31:32.609Z,21.17
2018-09-17T05:34:02.710Z,20.30
2018-09-17T05:36:32.770Z,18.10
2018-09-17T05:39:02.974Z,22.40
2018-09-17T05:41:33.095Z,18.10
2018-09-17T05:44:03.185Z,17.83
2018-09-17T05:46:33.496Z,25.93
2018-09-17T05:49:03.767Z,18.60
2018-09-17T05:51:33.913Z,14.40
2018-09-17T05:54:04.033Z,14.57
2018-09-17T05:56:34.175Z,17.37
2018-09-17T05:59:04.300Z,17.97
2018-09-17T06:01:34.445Z,18.60
2018-09-17T06:04:04.557Z,23.53
2018-09-17T06:06:34.739Z,16.40
2018-09-17T06:09:07.079Z,15.37
2018-09-17T06:11:37.231Z,17.23
2018-09-17T06:14:07.948Z,19.10
2018-09-17T06:16:38.133Z,15.20
2018-09-17T06:19:08.212Z,18.70
2018-09-17T06:21:38.380Z,15.27
2018-09-17T06:24:08.635Z,14.17
2018-09-17T06:26:39.004Z,16.10
2018-09-17T06:29:08.982Z,13.43
2018-09-17T06:31:39.136Z,17.27
2018-09-17T06:34:09.378Z,14.90
2018-09-17T06:36:39.518Z,15.90
2018-09-17T06:39:10.756Z,18.00
2018-09-17T06:41:40.884Z,20.80
2018-09-17T06:44:11.012Z,19.23
2018-09-17T06:46:41.130Z,21.40
2018-09-17T06:49:11.229Z,21.70
2018-09-17T06:51:41.372Z,15.10
2018-09-17T06:54:11.422Z,12.87
2018-09-17T06:56:41.506Z,14.53
2018-09-17T06:59:11.545Z,17.50
2018-09-17T07:01:41.612Z,13.70
2018-09-17T07:04:11.678Z,9.00
2018-09-17T07:06:41.786Z,11.67
2018-09-17T07:09:12.775Z,13.53
2018-09-17T07:11:42.853Z,9.13
2018-09-17T07:14:12.866Z,10.63
2018-09-17T07:16:42.942Z,12.60
2018-09-17T07:19:13.030Z,10.87
2018-09-17T07:21:43.166Z,13.60
2018-09-17T07:24:13.271Z,10.03
2018-09-17T07:26:43.458Z,15.97
2018-09-17T07:29:13.479Z,14.10
2018-09-17T07:31:43.576Z,16.80
2018-09-17T07:34:13.713Z,17.47
2018-09-17T07:36:43.821Z,20.73
2018-09-17T07:39:13.961Z,14.93
2018-09-17T07:41:44.067Z,16.60
2018-09-17T07:44:14.157Z,18.00
2018-09-17T07:46:44.240Z,17.87
2018-09-17T07:49:14.360Z,16.90
2018-09-17T07:51:44.585Z,15.40
2018-09-17T07:54:14.705Z,18.40
2018-09-17T07:56:45.066Z,14.23
2018-09-17T07:59:15.179Z,17.27
2018-09-17T08:01:45.271Z,28.53
2018-09-17T08:04:15.338Z,16.13
2018-09-17T08:06:45.426Z,14.50
2018-09-17T08:09:15.845Z,15.73
2018-09-17T08:11:45.985Z,10.07
2018-09-17T08:14:16.464Z,12.60
2018-09-17T08:16:46.512Z,11.10
2018-09-17T08:19:16.614Z,10.60
2018-09-17T08:21:46.789Z,16.70
2018-09-17T08:24:16.882Z,14.43
2018-09-17T08:26:46.947Z,17.37
2018-09-17T08:29:17.060Z,16.63
2018-09-17T08:31:47.186Z,16.30
2018-09-17T08:34:17.266Z,14.63
2018-09-17T08:36:47.359Z,10.73
2018-09-17T08:39:17.466Z,10.17
2018-09-17T08:41:47.535Z,13.63
2018-09-17T08:44:17.680Z,11.57
2018-09-17T08:46:47.832Z,10.50
2018-09-17T08:49:17.959Z,8.83
2018-09-17T08:51:48.019Z,7.80
2018-09-17T08:54:18.325Z,9.03
2018-09-17T08:56:59.061Z,8.10
2018-09-17T08:59:34.106Z,7.33
2018-09-17T09:02:09.318Z,7.10
2018-09-17T09:04:44.511Z,6.17
2018-09-17T09:07:19.831Z,8.17
2018-09-17T09:09:49.931Z,9.67
2018-09-17T09:12:26.208Z,6.57
2018-09-17T09:14:56.335Z,5.70
2018-09-17T09:17:26.479Z,6.00
2018-09-17T09:19:56.576Z,6.13
2018-09-17T09:22:26.660Z,5.93
2018-09-17T09:24:56.743Z,6.70
2018-09-17T09:27:29.830Z,7.53
2018-09-17T09:29:59.934Z,8.03
2018-09-17T09:32:30.027Z,4.30
2018-09-17T09:35:00.129Z,5.87
2018-09-17T09:37:30.312Z,5.47
2018-09-17T09:40:00.344Z,4.90
2018-09-17T09:42:30.427Z,3.93
2018-09-17T09:45:00.587Z,4.40
2018-09-17T09:47:30.673Z,11.87
2018-09-17T09:50:00.734Z,7.67
2018-09-17T09:52:30.805Z,4.50
2018-09-17T09:55:00.888Z,6.07
2018-09-17T09:57:31.011Z,4.33
2018-09-17T10:00:01.142Z,8.60
2018-09-17T10:02:36.065Z,7.50
2018-09-17T10:05:06.910Z,4.70
2018-09-17T10:07:37.490Z,5.90
2018-09-17T10:10:12.532Z,5.17
2018-09-17T10:13:47.285Z,3.17
2018-09-17T10:16:18.955Z,4.03
2018-09-17T10:18:54.154Z,4.93
2018-09-17T10:21:24.651Z,4.80
2018-09-17T10:23:54.725Z,4.43
2018-09-17T10:26:24.850Z,5.27
2018-09-17T10:28:54.977Z,3.17
2018-09-17T10:31:25.031Z,3.50
2018-09-17T10:33:55.207Z,7.17
2018-09-17T10:36:25.257Z,3.93
2018-09-17T10:38:55.404Z,4.93
2018-09-17T10:41:25.998Z,7.13
2018-09-17T10:43:56.072Z,3.20
2018-09-17T10:46:26.171Z,3.40
2018-09-17T10:48:56.395Z,5.23
2018-09-17T10:51:26.480Z,4.87
2018-09-17T10:53:56.640Z,4.17
2018-09-17T10:56:26.692Z,4.37
2018-09-17T10:58:56.920Z,2.80
2018-09-17T11:01:26.978Z,3.90
2018-09-17T11:03:57.615Z,5.80
2018-09-17T11:06:27.668Z,4.43
2018-09-17T11:08:57.802Z,5.37
2018-09-17T11:11:29.034Z,5.93
2018-09-17T11:13:59.163Z,7.03
2018-09-17T11:16:29.256Z,9.00
2018-09-17T11:18:59.444Z,4.47
2018-09-17T11:21:29.507Z,4.53
2018-09-17T11:23:59.624Z,3.50
2018-09-17T11:26:29.730Z,4.13
2018-09-17T11:28:59.847Z,4.27
2018-09-17T11:31:30.025Z,3.13
2018-09-17T11:34:00.066Z,3.70
2018-09-17T11:36:30.120Z,6.30
2018-09-17T11:39:08.054Z,2.97
2018-09-17T11:41:38.287Z,3.60
2018-09-17T11:44:08.544Z,4.23
2018-09-17T11:46:38.736Z,4.33
2018-09-17T11:49:13.042Z,2.90
2018-09-17T11:51:43.124Z,3.87
2018-09-17T11:54:13.200Z,4.00
2018-09-17T11:56:43.439Z,6.70
2018-09-17T11:59:13.540Z,3.10
2018-09-17T12:01:48.533Z,2.87
2018-09-17T12:05:21.428Z,3.50
2018-09-17T12:07:51.498Z,2.40
2018-09-17T12:10:21.575Z,4.30
2018-09-17T12:12:51.593Z,5.43
2018-09-17T12:15:21.793Z,4.40
2018-09-17T12:17:51.865Z,3.50
2018-09-17T12:20:21.991Z,2.60
2018-09-17T12:22:52.002Z,5.97
2018-09-17T12:25:22.107Z,4.23
2018-09-17T12:27:52.155Z,3.23
2018-09-17T12:30:22.310Z,2.97
2018-09-17T12:32:52.365Z,3.60
2018-09-17T12:35:22.579Z,2.13
2018-09-17T12:37:53.051Z,5.30
2018-09-17T12:40:29.564Z,4.67
2018-09-17T12:42:59.847Z,3.20
2018-09-17T12:45:29.979Z,2.90
2018-09-17T12:47:59.986Z,3.17
2018-09-17T12:50:30.070Z,6.43
2018-09-17T12:53:00.158Z,3.03
2018-09-17T12:55:30.293Z,2.83
2018-09-17T12:58:00.385Z,4.30
2018-09-17T13:00:30.657Z,5.37
2018-09-17T13:03:02.878Z,6.70
2018-09-17T13:05:33.007Z,2.90
2018-09-17T13:08:03.095Z,2.83
2018-09-17T13:10:33.255Z,3.63
2018-09-17T13:13:03.370Z,3.63
2018-09-17T13:15:33.479Z,2.97
2018-09-17T13:18:03.546Z,2.60
2018-09-17T13:20:33.616Z,5.43
2018-09-17T13:23:03.824Z,5.00
2018-09-17T13:25:33.988Z,5.70
2018-09-17T13:28:04.056Z,8.53
2018-09-17T13:30:34.204Z,7.33
2018-09-17T13:33:04.368Z,4.30
2018-09-17T13:35:34.663Z,5.83
2018-09-17T13:38:04.793Z,5.03
2018-09-17T13:40:34.896Z,4.80
2018-09-17T13:43:05.032Z,3.93
2018-09-17T13:45:35.166Z,5.53
2018-09-17T13:48:05.227Z,3.90
2018-09-17T13:50:34.251Z,3.00
2018-09-17T13:53:04.440Z,6.17
2018-09-17T13:55:34.606Z,3.53
2018-09-17T13:58:04.697Z,3.53
2018-09-17T14:00:34.800Z,3.13
2018-09-17T14:03:04.887Z,6.90
2018-09-17T14:05:34.991Z,7.60
2018-09-17T14:08:05.122Z,3.93
2018-09-17T14:10:35.290Z,3.70
2018-09-17T14:13:05.381Z,3.17
2018-09-17T14:15:35.512Z,4.07
2018-09-17T14:18:05.689Z,4.13
2018-09-17T14:20:35.784Z,4.50
2018-09-17T14:23:05.894Z,3.43
2018-09-17T14:25:35.941Z,6.77
2018-09-17T14:28:06.026Z,5.73
2018-09-17T14:30:36.185Z,3.73
2018-09-17T14:33:11.490Z,5.63
2018-09-17T14:35:41.777Z,5.90
2018-09-17T14:38:11.879Z,3.53
2018-09-17T14:40:42.079Z,3.53
2018-09-17T14:43:12.198Z,3.97
2018-09-17T14:45:42.546Z,4.60
2018-09-17T14:48:12.610Z,4.73
2018-09-17T14:50:42.707Z,3.77
2018-09-17T14:53:12.793Z,3.37
2018-09-17T14:55:44.456Z,3.10
2018-09-17T14:58:15.083Z,5.03
2018-09-17T15:00:45.326Z,4.40
2018-09-17T15:03:15.448Z,2.77
2018-09-17T15:05:45.712Z,3.40
2018-09-17T15:08:16.074Z,6.40
2018-09-17T15:10:46.168Z,3.10
2018-09-17T15:13:16.360Z,3.17
2018-09-17T15:15:46.507Z,2.83
2018-09-17T15:18:17.337Z,3.77
2018-09-17T15:20:47.458Z,3.37
2018-09-17T15:23:17.521Z,3.20
2018-09-17T15:25:47.649Z,5.00
2018-09-17T15:28:17.787Z,2.27
2018-09-17T15:30:47.886Z,5.13
2018-09-17T15:33:18.014Z,3.47
2018-09-17T15:35:48.090Z,3.97
2018-09-17T15:38:18.231Z,5.27
2018-09-17T15:40:48.418Z,3.37
2018-09-17T15:43:18.430Z,3.53
2018-09-17T15:45:48.578Z,5.20
2018-09-17T15:48:18.657Z,2.57
2018-09-17T15:50:48.751Z,5.53
2018-09-17T15:53:18.816Z,9.60
2018-09-17T15:55:48.908Z,3.80
2018-09-17T15:58:19.100Z,2.20
2018-09-17T16:00:49.478Z,7.13
2018-09-17T16:03:19.591Z,3.60
2018-09-17T16:05:49.724Z,3.60
2018-09-17T16:08:19.802Z,3.03
2018-09-17T16:10:49.895Z,2.63
2018-09-17T16:13:20.157Z,3.93
2018-09-17T16:15:50.310Z,3.67
2018-09-17T16:18:20.495Z,2.40
2018-09-17T16:20:50.639Z,2.50
2018-09-17T16:23:20.760Z,2.77
2018-09-17T16:25:50.892Z,3.80
2018-09-17T16:28:20.980Z,7.63
2018-09-17T16:30:51.079Z,4.40
2018-09-17T16:33:21.161Z,3.57
2018-09-17T16:35:51.251Z,3.90
2018-09-17T16:38:21.386Z,3.00
2018-09-17T16:40:51.514Z,3.80
2018-09-17T16:43:21.671Z,2.70
2018-09-17T16:45:51.824Z,9.53
2018-09-17T16:48:22.044Z,3.73
2018-09-17T16:50:52.171Z,3.97
2018-09-17T16:53:22.246Z,6.70
2018-09-17T16:55:52.346Z,13.57
2018-09-17T16:58:22.728Z,7.77
2018-09-17T17:00:54.822Z,5.37
2018-09-17T17:03:24.979Z,6.80
2018-09-17T17:05:55.174Z,5.87
2018-09-17T17:08:25.365Z,3.43
2018-09-17T17:10:55.550Z,3.50
2018-09-17T17:13:25.543Z,5.00
2018-09-17T17:15:55.713Z,3.53
2018-09-17T17:18:25.808Z,4.13
2018-09-17T17:20:55.914Z,6.27
2018-09-17T17:23:26.032Z,4.10
2018-09-17T17:25:56.278Z,3.30
2018-09-17T17:28:26.478Z,7.93
2018-09-17T17:30:56.697Z,5.53
2018-09-17T17:33:26.740Z,5.50
2018-09-17T17:35:56.911Z,6.10
2018-09-17T17:38:27.036Z,7.30
2018-09-17T17:40:57.154Z,9.43
2018-09-17T17:43:27.232Z,7.27
2018-09-17T17:45:57.400Z,9.23
2018-09-17T17:48:27.478Z,5.63
2018-09-17T17:50:57.724Z,12.73
2018-09-17T17:53:28.070Z,10.40
2018-09-17T17:55:58.302Z,9.20
2018-09-17T17:58:28.365Z,7.40
2018-09-17T18:00:58.498Z,4.53
2018-09-17T18:03:28.620Z,7.63
2018-09-17T18:05:58.746Z,5.80
2018-09-17T18:08:28.821Z,7.30
2018-09-17T18:10:58.942Z,6.87
2018-09-17T18:13:29.092Z,5.77
2018-09-17T18:15:59.317Z,5.07
2018-09-17T18:18:29.472Z,6.10
2018-09-17T18:20:59.658Z,6.90
2018-09-17T18:23:29.729Z,8.30
2018-09-17T18:25:59.862Z,5.30
2018-09-17T18:28:29.919Z,6.23
2018-09-17T18:31:00.052Z,6.33
2018-09-17T18:33:30.146Z,6.30
2018-09-17T18:36:00.321Z,6.30
2018-09-17T18:38:30.425Z,5.30
2018-09-17T18:41:00.558Z,8.80
2018-09-17T18:43:30.648Z,5.13
2018-09-17T18:46:00.972Z,5.80
2018-09-17T18:48:31.129Z,6.27
2018-09-17T18:51:01.392Z,6.63
2018-09-17T18:53:31.534Z,8.63
2018-09-17T18:56:01.767Z,4.10
2018-09-17T18:58:32.010Z,8.90
2018-09-17T19:01:02.173Z,6.33
2018-09-17T19:03:32.251Z,5.87
2018-09-17T19:06:02.404Z,9.17
2018-09-17T19:08:32.567Z,5.87
2018-09-17T19:11:02.741Z,6.93
2018-09-17T19:13:32.908Z,6.07
2018-09-17T19:16:03.168Z,5.90
2018-09-17T19:18:33.439Z,8.33
2018-09-17T19:21:03.818Z,8.67
2018-09-17T19:24:07.112Z,7.10
2018-09-17T19:26:37.295Z,6.60
2018-09-17T19:29:12.419Z,8.03
2018-09-17T19:31:42.559Z,7.40
2018-09-17T19:34:13.823Z,12.63
2018-09-17T19:36:44.138Z,8.60
2018-09-17T19:39:19.206Z,9.10
2018-09-17T19:41:49.398Z,6.33
2018-09-17T19:44:19.552Z,9.47
2018-09-17T19:46:49.661Z,12.43
2018-09-17T19:49:19.839Z,8.80
2018-09-17T19:51:55.052Z,8.00
2018-09-17T19:54:25.122Z,8.93
2018-09-17T19:56:55.267Z,7.80
2018-09-17T19:59:30.491Z,9.03
2018-09-17T20:02:00.644Z,7.50
2018-09-17T20:04:35.622Z,6.43
2018-09-17T20:07:05.793Z,7.20
2018-09-17T20:09:35.879Z,9.60
2018-09-17T20:12:06.058Z,7.07
2018-09-17T20:14:36.192Z,9.67
2018-09-17T20:17:06.501Z,8.90
2018-09-17T20:19:36.590Z,9.30
2018-09-17T20:22:08.154Z,6.07
2018-09-17T20:24:38.280Z,7.17
2018-09-17T20:27:08.782Z,8.73
2018-09-17T20:29:39.095Z,7.03
2018-09-17T20:32:09.189Z,9.23
2018-09-17T20:34:39.300Z,8.20
2018-09-17T20:37:09.440Z,6.23
2018-09-17T20:39:39.540Z,7.40
2018-09-17T20:42:09.691Z,7.30
2018-09-17T20:44:39.781Z,6.17
2018-09-17T20:47:09.899Z,8.27
2018-09-17T20:49:40.014Z,6.57
2018-09-17T20:52:10.052Z,8.67
2018-09-17T20:54:40.156Z,6.97
2018-09-17T20:57:10.263Z,8.07
2018-09-17T20:59:40.352Z,6.30
2018-09-17T21:02:10.602Z,7.27
2018-09-17T21:04:40.730Z,11.53
2018-09-17T21:07:10.900Z,7.87
2018-09-17T21:09:40.958Z,7.17
2018-09-17T21:12:11.075Z,7.30
2018-09-17T21:14:41.130Z,6.53
2018-09-17T21:17:11.277Z,5.20
2018-09-17T21:19:41.369Z,4.83
2018-09-17T21:22:11.579Z,6.47
2018-09-17T21:24:41.783Z,6.67
2018-09-17T21:27:11.886Z,5.70
2018-09-17T21:29:41.984Z,6.10
2018-09-17T21:32:12.168Z,8.80
2018-09-17T21:34:42.271Z,6.00
2018-09-17T21:37:12.472Z,9.50
2018-09-17T21:39:42.609Z,6.77
2018-09-17T21:42:12.740Z,5.53
2018-09-17T21:44:42.804Z,6.30
2018-09-17T21:47:12.963Z,7.87
2018-09-17T21:49:43.226Z,5.00
2018-09-17T21:52:13.317Z,5.57
2018-09-17T21:54:43.429Z,8.27
2018-09-17T21:57:13.533Z,10.80
2018-09-17T21:59:43.627Z,6.80
2018-09-17T22:02:13.861Z,5.50
2018-09-17T22:04:43.975Z,6.70
2018-09-17T22:07:14.097Z,6.20
2018-09-17T22:09:44.187Z,8.27
2018-09-17T22:12:14.272Z,4.60
2018-09-17T22:14:44.377Z,8.60
2018-09-17T22:17:14.518Z,7.47
2018-09-17T22:19:44.671Z,6.77
2018-09-17T22:22:14.757Z,6.13
2018-09-17T22:24:44.916Z,7.60
2018-09-17T22:27:15.039Z,8.60
2018-09-17T22:29:45.123Z,7.50
2018-09-17T22:32:15.213Z,6.67
2018-09-17T22:34:45.275Z,6.53
2018-09-17T22:37:15.365Z,7.57
2018-09-17T22:39:46.432Z,6.33
2018-09-17T22:42:16.716Z,7.37
2018-09-17T22:44:46.728Z,8.60
2018-09-17T22:47:16.963Z,7.50
2018-09-17T22:49:47.048Z,7.50
2018-09-17T22:52:17.137Z,6.87
2018-09-17T22:54:47.223Z,6.20
2018-09-17T22:57:17.396Z,7.97
2018-09-17T22:59:47.460Z,7.90
2018-09-17T23:02:17.607Z,7.03
2018-09-17T23:04:47.725Z,6.87
2018-09-17T23:07:17.977Z,6.63
2018-09-17T23:09:48.049Z,7.30
2018-09-17T23:12:18.283Z,7.20
2018-09-17T23:14:48.356Z,6.97
2018-09-17T23:17:18.969Z,6.63
2018-09-17T23:19:49.072Z,5.60
2018-09-17T23:22:19.221Z,5.20
2018-09-17T23:24:49.319Z,7.03
2018-09-17T23:27:19.610Z,7.20
2018-09-17T23:29:49.694Z,6.40
2018-09-17T23:32:19.894Z,11.37
2018-09-17T23:34:50.075Z,5.90
2018-09-17T23:37:20.159Z,8.50
2018-09-17T23:39:50.281Z,9.90
2018-09-17T23:42:20.382Z,5.53
2018-09-17T23:44:50.437Z,6.13
2018-09-17T23:47:20.535Z,5.27
2018-09-17T23:49:50.554Z,5.67
2018-09-17T23:52:20.629Z,5.10
2018-09-17T23:54:50.716Z,8.00
2018-09-17T23:57:20.853Z,5.43
2018-09-17T23:59:50.969Z,5.70
